Roseburg, OR

10:12 PM PDT on August 27, 2014 (GMT -0700)
North Bend | Change Station
CLOSE
Current Station
Airport
Location: North Bend,
Elevation: 16 ft
Nearby Weather Stations

Elev 16 ft 43.42 °N, 124.25 °W | Updated 37 minutes ago

Overcast
Overcast
59 °F
Feels Like 59 °F
N
9
Wind Variable Wind from North

Today
High -- | Low -- °F
--% Chance of Precip.
Yesterday
High -- | Low -- °F
Precip. -- in
6:32 AM 7:56 PM
Waxing Crescent, 6% visible
Pressure 30.11 in
Visibility 10.0 miles
Clouds Overcast 600 ft
Dew Point 57 °F
Humidity 94%
Rainfall 0.00 in
Snow Depth Not available.
UV 0 out of 12
Pollen 3.50 out of 12
Air Quality Not available.
Flu Activity Not available.
METAR KOTH 280435Z 36008KT 10SM OVC006 15/14 A3011 RMK AO1

More Conditions Fewer Conditions

Pressure 30.11 in
Visibility 10.0 miles
Clouds Overcast 600 ft
Dew Point 57 °F
Humidity 94%
Rainfall 0.00 in
Snow Depth Not available.
UV 0 out of 12
Pollen 3.50 out of 12
Air Quality Not available.
Flu Activity Not available.
METAR KOTH 280435Z 36008KT 10SM OVC006 15/14 A3011 RMK AO1

More Conditions Fewer Conditions

10-Day Weather Forecast

Almanac

Astronomy

Aug. 27, 2014 Rise Set
Actual Time 6:32 AM PDT 7:56 PM PDT
Civil Twilight 6:02 AM PDT 8:26 PM PDT
Nautical Twilight 5:26 AM PDT 9:02 PM PDT
Astronomical Twilight 4:48 AM PDT 9:39 PM PDT
Moon 8:38 AM PDT (8/27) 8:46 PM PDT (8/27)
Length of Visible Light 14h 23m
Length of Day
13h 24m
Tomorrow will be 2m 47s shorter.
Waxing Crescent, 6% of the Moon is Illuminated
Aug 28
Waxing Crescent
Sep 2
First Quarter
Sep 8
Full
Sep 15
Last Quarter
Sep 24
New

Yesterday's Extremes

State Highs State Lows

Community

WunderPhotos

Upload Photos

1,747,908 photos uploaded!

Nearby

Snow Depth

Station Depth Elevation
Diamond Lake 0 in 5315 ft
New Crescent Lake 0 in 4800 ft
Sevenmile Marsh 0 in 6200 ft
Fish Lake 0 in 4665 ft
Cold Springs Camp 0 in 6100 ft

Earthquake Activity

City Distance Mag. Time & Date
No recent earthquake activity has been reported nearby.
Minimum magnitude displayed is 2.5.

Coastal Water Temperatures

Place Temperature
No Stations Reporting

Nearby Weather Stations